Time;durP1;ratioP1;P1;durP2;ratioP2;P2;SDS_P1;SDS_P2;PMS_P1;PMS_P2;Temp;Humidity;BMP_temperature;BMP_pressure;BME280_temperature;BME280_humidity;BME280_pressure;Samples;Min_cycle;Max_cycle;Signal;HPM_P1;HPM_P2
2022/01/11 00:01:42;;;;;;;;;14.75;13.75;;;;;11.67;76.53;99350.75;146589;591;46914;-78
2022/01/11 00:04:35;;;;;;;;;13.00;13.00;;;;;11.62;76.64;99348.06;146586;571;46016;-78
2022/01/11 00:07:30;;;;;;;;;12.50;12.00;;;;;11.59;77.16;99341.88;146592;575;46020;-77
2022/01/11 00:10:35;;;;;;;;;12.00;10.75;;;;;11.54;77.16;99340.06;146588;574;46016;-78
2022/01/11 00:13:27;;;;;;;;;11.00;10.25;;;;;11.51;77.75;99349.50;146590;595;46020;-77
2022/01/11 00:16:20;;;;;;;;;12.50;11.75;;;;;11.46;77.73;99357.12;146591;582;46917;-80
2022/01/11 00:19:13;;;;;;;;;17.75;16.50;;;;;11.44;77.75;99369.22;146588;577;46020;-73
2022/01/11 00:22:15;;;;;;;;;20.00;18.75;;;;;11.43;79.01;99377.84;146585;593;46031;-74
2022/01/11 00:25:08;;;;;;;;;23.25;19.75;;;;;11.40;78.64;99377.78;146587;618;46020;-74
2022/01/11 00:28:00;;;;;;;;;14.25;13.50;;;;;11.37;78.64;99369.00;146587;573;46028;-73
2022/01/11 00:30:53;;;;;;;;;22.00;20.75;;;;;11.32;79.01;99372.38;146589;573;46008;-74
2022/01/11 00:33:46;;;;;;;;;18.75;15.75;;;;;11.29;79.28;99387.84;146587;572;46010;-75
2022/01/11 00:36:42;;;;;;;;;17.75;14.75;;;;;11.26;79.12;99379.12;146589;631;46020;-73
2022/01/11 00:39:36;;;;;;;;;17.75;15.00;;;;;11.23;78.72;99376.44;146584;600;47010;-74
2022/01/11 00:42:28;;;;;;;;;17.25;14.50;;;;;11.22;78.76;99370.38;146591;699;46020;-75
2022/01/11 00:45:20;;;;;;;;;12.25;12.25;;;;;11.21;78.98;99370.31;146583;612;46017;-73
2022/01/11 00:48:21;;;;;;;;;11.25;11.25;;;;;11.23;78.80;99379.91;146587;588;46020;-70
2022/01/11 00:55:22;;;;;;;;;15.00;11.25;;;;;11.29;79.06;99358.44;146589;605;46020;-70
2022/01/11 00:58:19;;;;;;;;;11.00;11.00;;;;;11.30;79.59;99371.44;146586;593;47010;-71
2022/01/11 01:01:23;;;;;;;;;11.25;10.50;;;;;11.29;80.10;99382.66;146590;603;46021;-71
2022/01/11 01:12:38;;;;;;;;;9.50;9.25;;;;;11.16;79.06;99387.50;146587;569;46032;-71
2022/01/11 01:15:50;;;;;;;;;20.75;19.25;;;;;11.18;79.12;99389.25;146591;566;47008;-72
2022/01/11 01:33:49;;;;;;;;;18.25;17.75;;;;;11.26;80.11;99361.81;146586;509;46016;-73
2022/01/11 01:36:42;;;;;;;;;19.00;18.00;;;;;11.27;80.01;99347.13;146586;602;46021;-70
2022/01/11 01:39:34;;;;;;;;;10.25;9.00;;;;;11.30;79.76;99342.03;146585;668;46016;-72
2022/01/11 01:42:40;;;;;;;;;8.00;7.25;;;;;11.30;79.68;99335.09;146590;577;46020;-71
2022/01/11 01:45:32;;;;;;;;;11.50;10.00;;;;;11.30;79.96;99331.63;146592;625;46010;-73
2022/01/11 01:48:25;;;;;;;;;20.00;18.75;;;;;11.26;81.85;99322.91;146585;564;47008;-72
2022/01/11 01:51:18;;;;;;;;;14.25;13.00;;;;;11.24;80.79;99318.50;146586;570;46010;-72
2022/01/11 01:54:23;;;;;;;;;14.00;13.25;;;;;11.26;81.71;99329.81;146587;650;46020;-76
2022/01/11 01:57:25;;;;;;;;;16.00;14.25;;;;;11.19;81.55;99323.59;146585;588;46016;-78
2022/01/11 02:00:24;;;;;;;;;14.75;12.75;;;;;11.16;80.93;99327.81;146589;576;46021;-73
2022/01/11 02:03:18;;;;;;;;;43.00;34.25;;;;;11.15;80.81;99329.50;146585;710;46016;-76
2022/01/11 02:06:13;;;;;;;;;42.00;34.75;;;;;11.19;80.36;99335.69;146587;575;46020;-75
2022/01/11 02:09:05;;;;;;;;;22.75;20.50;;;;;11.21;80.19;99334.00;146590;563;46016;-72
2022/01/11 02:11:57;;;;;;;;;36.50;31.75;;;;;11.24;80.24;99347.91;146585;577;47008;-72
2022/01/11 02:14:49;;;;;;;;;14.50;13.00;;;;;11.25;81.09;99305.59;146585;627;47010;-73
2022/01/11 02:25:26;;;;;;;;;7.50;6.50;;;;;10.93;81.44;99302.13;146586;563;47913;-74
2022/01/11 02:28:24;;;;;;;;;12.00;9.25;;;;;10.91;81.66;99323.69;146591;573;47010;-72
2022/01/11 02:31:40;;;;;;;;;11.50;11.50;;;;;10.84;82.72;99275.94;146594;618;46008;-73
2022/01/11 02:34:38;;;;;;;;;4.50;3.00;;;;;10.80;81.89;99276.72;146588;618;47012;-75
2022/01/11 02:37:31;;;;;;;;;5.00;5.00;;;;;10.75;82.29;99280.91;146595;650;46020;-76
2022/01/11 02:40:24;;;;;;;;;8.00;7.75;;;;;10.73;81.85;99273.06;146588;564;46016;-77
2022/01/11 02:43:34;;;;;;;;;11.00;9.75;;;;;10.77;80.78;99264.53;146594;586;46021;-75
2022/01/11 02:46:27;;;;;;;;;6.50;6.00;;;;;10.78;82.17;99248.16;146588;628;46016;-76
2022/01/11 02:49:19;;;;;;;;;9.00;9.00;;;;;10.75;81.75;99255.84;146591;593;46020;-74
2022/01/11 02:52:12;;;;;;;;;27.75;23.00;;;;;10.75;81.42;99242.03;146592;579;46017;-73
2022/01/11 02:55:04;;;;;;;;;27.25;22.00;;;;;10.78;80.73;99239.50;146586;703;46008;-72
2022/01/11 02:57:57;;;;;;;;;12.00;10.75;;;;;10.81;81.09;99237.88;146583;607;47012;-71
2022/01/11 03:00:50;;;;;;;;;13.75;13.00;;;;;10.86;80.91;99254.41;146585;563;46008;-73
2022/01/11 03:03:43;;;;;;;;;17.50;17.00;;;;;10.82;81.26;99218.00;146583;576;47010;-75
2022/01/11 03:06:35;;;;;;;;;9.25;8.25;;;;;10.79;83.52;99249.03;146588;615;46021;-74
2022/01/11 03:09:33;;;;;;;;;15.50;13.00;;;;;10.71;82.52;99219.44;146591;584;46016;-76
2022/01/11 03:12:28;;;;;;;;;12.50;11.00;;;;;10.70;81.55;99225.47;146586;570;47013;-76
2022/01/11 03:15:21;;;;;;;;;5.25;3.50;;;;;10.69;82.04;99234.09;146588;683;46016;-74
2022/01/11 03:18:13;;;;;;;;;8.00;7.00;;;;;10.67;81.80;99226.25;146593;571;46020;-73
2022/01/11 03:21:06;;;;;;;;;2.00;2.00;;;;;10.64;81.49;99203.72;146594;599;46010;-70
2022/01/11 03:23:58;;;;;;;;;1.00;1.00;;;;;10.76;80.96;99208.34;146586;574;47008;-73
2022/01/11 03:26:51;;;;;;;;;3.33;1.67;;;;;9.94;80.82;99041.19;146593;590;47010;-72
2022/01/11 03:29:43;;;;;;;;;1.00;1.00;;;;;11.17;81.22;99207.63;146597;582;46008;-79
2022/01/11 03:32:35;;;;;;;;;0.75;0.75;;;;;11.38;81.80;99207.28;146595;564;46917;-73
2022/01/11 03:35:29;;;;;;;;;2.00;2.00;;;;;11.54;78.85;99184.31;146592;708;47008;-74
2022/01/11 03:38:23;;;;;;;;;3.50;2.00;;;;;11.67;78.12;99190.63;146591;678;46016;-72
2022/01/11 03:41:15;;;;;;;;;2.00;2.00;;;;;11.75;80.05;99177.84;146596;569;46008;-69
2022/01/11 03:44:08;;;;;;;;;2.00;2.00;;;;;11.72;79.75;99157.88;146594;599;46010;-70
2022/01/11 03:47:00;;;;;;;;;1.33;0.00;;;;;11.73;78.10;99163.94;146593;575;46915;-72
2022/01/11 03:49:53;;;;;;;;;1.75;1.75;;;;;11.74;78.10;99155.28;146593;653;46010;-74
2022/01/11 03:52:45;;;;;;;;;4.00;2.25;;;;;11.70;78.96;99172.53;146589;578;46020;-74
2022/01/11 03:58:47;;;;;;;;;1.33;1.00;;;;;11.67;78.76;99185.44;146595;638;46008;-72
2022/01/11 04:01:41;;;;;;;;;6.00;4.00;;;;;11.64;79.91;99181.91;146588;611;46917;-73
2022/01/11 04:04:32;;;;;;;;;6.00;4.00;;;;;9.95;80.84;98909.19;146590;601;47916;-71
2022/01/11 04:07:29;;;;;;;;;1.00;0.00;;;;;11.66;78.41;99175.03;146594;572;46010;-71
2022/01/11 04:10:21;;;;;;;;;7.25;5.00;;;;;11.74;79.98;99178.66;146592;616;47008;-75
2022/01/11 04:13:13;;;;;;;;;8.25;6.00;;;;;11.79;78.99;99180.53;146591;581;46012;-74
2022/01/11 04:16:05;;;;;;;;;3.00;3.00;;;;;11.77;79.06;99170.94;146595;668;47008;-80
2022/01/11 04:18:58;;;;;;;;;3.00;2.00;;;;;11.73;78.34;99158.75;146593;680;46016;-75
2022/01/11 04:21:50;;;;;;;;;4.00;3.00;;;;;11.71;79.06;99155.22;146587;604;46021;-74
2022/01/11 04:24:42;;;;;;;;;3.50;2.25;;;;;11.70;79.37;99158.69;146592;676;46010;-77
2022/01/11 04:27:34;;;;;;;;;7.25;5.75;;;;;11.70;80.07;99182.06;146594;564;47008;-76
2022/01/11 04:30:26;;;;;;;;;6.25;4.75;;;;;11.67;80.53;99169.87;146591;574;46016;-76
2022/01/11 04:33:18;;;;;;;;;4.00;3.50;;;;;11.58;79.70;99180.06;146594;698;46020;-74
2022/01/11 04:36:11;;;;;;;;;4.75;3.00;;;;;11.51;81.04;99194.63;146591;584;46016;-78
2022/01/11 04:39:03;;;;;;;;;8.75;8.00;;;;;11.50;83.14;99228.34;146597;600;46020;-75
2022/01/11 04:41:56;;;;;;;;;8.50;6.00;;;;;11.46;80.70;99210.91;146600;632;46010;-76
2022/01/11 04:44:49;;;;;;;;;12.00;10.00;;;;;11.52;81.08;99234.41;146595;590;46020;-77
2022/01/11 04:47:41;;;;;;;;;11.75;8.75;;;;;11.49;81.96;99243.00;146590;607;46016;-73
2022/01/11 04:50:34;;;;;;;;;6.00;6.00;;;;;11.46;81.97;99261.09;146593;657;46009;-82
2022/01/11 04:53:26;;;;;;;;;9.25;8.75;;;;;11.41;81.74;99254.06;146594;571;46016;-75
2022/01/11 04:56:19;;;;;;;;;9.25;7.75;;;;;11.51;80.98;99280.28;146599;592;46020;-74
2022/01/11 04:59:11;;;;;;;;;9.75;7.75;;;;;11.55;80.77;99276.91;146595;569;46012;-73
2022/01/11 05:02:03;;;;;;;;;9.50;7.25;;;;;11.66;80.54;99316.13;146599;606;46020;-85
2022/01/11 05:04:55;;;;;;;;;6.00;4.50;;;;;11.66;82.43;99305.72;146597;621;46010;-86
2022/01/11 05:07:49;;;;;;;;;7.75;7.75;;;;;11.61;82.35;99277.91;146601;564;46008;-77
2022/01/11 05:10:44;;;;;;;;;13.25;11.00;;;;;11.61;81.81;99319.44;146590;570;46017;-78
2022/01/11 05:13:36;;;;;;;;;15.00;10.75;;;;;11.65;81.95;99306.59;146596;669;46020;-80
2022/01/11 05:16:29;;;;;;;;;9.00;8.25;;;;;11.64;84.70;99296.16;146596;595;46916;-78
2022/01/11 05:19:21;;;;;;;;;7.00;6.00;;;;;11.62;82.74;99300.41;146593;644;46008;-76
2022/01/11 05:22:14;;;;;;;;;2.75;2.75;;;;;11.61;82.04;99298.66;146599;585;46031;-80
2022/01/11 05:25:06;;;;;;;;;7.50;5.50;;;;;11.59;83.93;99315.91;146600;725;46008;-76
2022/01/11 05:28:01;;;;;;;;;5.00;5.00;;;;;11.53;83.35;99307.16;146596;645;46016;-75
2022/01/11 05:30:53;;;;;;;;;3.00;3.00;;;;;11.56;81.36;99301.16;146599;580;46020;-78
2022/01/11 05:33:46;;;;;;;;;4.75;2.75;;;;;11.57;82.39;99339.25;146597;593;46011;-80
2022/01/11 05:36:38;;;;;;;;;7.50;6.00;;;;;11.60;81.88;99278.75;146593;615;46916;-84
2022/01/11 05:39:30;;;;;;;;;6.00;6.00;;;;;11.56;80.71;99342.72;146592;582;46010;-81
2022/01/11 05:42:24;;;;;;;;;6.00;6.00;;;;;11.63;79.46;99398.25;146594;620;47008;-73
2022/01/11 05:45:17;;;;;;;;;6.75;6.25;;;;;11.62;81.61;99344.56;146587;629;46016;-74
2022/01/11 05:48:10;;;;;;;;;9.75;8.50;;;;;11.59;81.61;99322.00;146588;609;46008;-72
2022/01/11 05:51:03;;;;;;;;;11.25;9.50;;;;;11.63;82.04;99373.16;146591;580;46030;-75
2022/01/11 05:53:54;;;;;;;;;6.25;6.00;;;;;11.49;82.06;99374.53;146592;575;46915;-76
2022/01/11 05:56:47;;;;;;;;;10.25;9.25;;;;;11.47;83.33;99379.69;146593;590;46012;-74
2022/01/11 05:59:39;;;;;;;;;10.25;7.50;;;;;11.47;84.20;99379.69;146592;564;46020;-75
2022/01/11 06:02:32;;;;;;;;;11.50;8.00;;;;;11.44;83.99;99369.22;146591;604;46010;-74
2022/01/11 06:05:25;;;;;;;;;9.25;8.00;;;;;11.36;83.50;99373.31;146585;603;47916;-71
2022/01/11 06:08:17;;;;;;;;;6.00;5.50;;;;;11.21;83.99;99350.44;146591;593;46016;-73
2022/01/11 06:11:11;;;;;;;;;9.25;7.00;;;;;11.23;84.12;99353.09;146594;566;46021;-74
2022/01/11 06:14:03;;;;;;;;;6.00;6.00;;;;;11.20;84.44;99327.94;146588;635;46016;-76
2022/01/11 06:16:55;;;;;;;;;6.00;4.00;;;;;11.22;83.88;99325.41;146586;563;46020;-74
2022/01/11 06:19:48;;;;;;;;;8.50;7.25;;;;;11.28;84.72;99325.56;146591;683;47010;-72
2022/01/11 06:22:40;;;;;;;;;6.75;4.75;;;;;11.18;87.17;99336.50;146594;609;46020;-70
2022/01/11 06:25:32;;;;;;;;;4.00;2.75;;;;;10.19;84.15;99216.25;146588;714;47012;-72
2022/01/11 06:28:25;;;;;;;;;5.75;5.50;;;;;11.12;84.87;99385.63;146595;618;46008;-75
2022/01/11 06:31:17;;;;;;;;;5.50;5.50;;;;;11.16;85.17;99424.69;146591;632;46016;-75
2022/01/11 06:34:10;;;;;;;;;5.50;5.00;;;;;11.16;85.30;99478.31;146593;570;46021;-75
2022/01/11 06:37:03;;;;;;;;;4.00;3.75;;;;;10.93;81.25;99493.16;146592;577;46917;-75
2022/01/11 06:39:55;;;;;;;;;2.25;1.75;;;;;10.55;79.48;99483.37;146595;616;46008;-73
2022/01/11 06:42:52;;;;;;;;;5.25;4.75;;;;;10.13;83.58;99525.19;146593;579;46010;-75
2022/01/11 06:45:45;;;;;;;;;3.33;1.00;;;;;9.95;84.82;99490.91;146587;692;46915;-75
2022/01/11 06:48:37;;;;;;;;;1.00;1.00;;;;;9.73;87.53;99522.94;146592;581;46918;-77
2022/01/11 06:51:30;;;;;;;;;1.00;0.00;;;;;9.63;86.84;99524.31;146595;628;47008;-75
2022/01/11 06:54:22;;;;;;;;;0.00;0.00;;;;;9.46;87.23;99559.03;146588;570;46016;-75
2022/01/11 06:57:14;;;;;;;;;2.00;1.75;;;;;9.42;89.27;99539.94;146592;638;47008;-76
2022/01/11 07:00:09;;;;;;;;;0.75;0.75;;;;;9.30;89.89;99572.25;146589;688;46016;-83
2022/01/11 07:03:01;;;;;;;;;0.00;0.00;;;;;9.31;89.27;99590.37;146593;577;46021;-75
2022/01/11 07:05:53;;;;;;;;;1.00;1.00;;;;;9.33;88.71;99564.59;146592;600;46010;-80
2022/01/11 07:08:45;;;;;;;;;3.00;3.00;;;;;9.36;88.05;99593.16;146591;635;46020;-77
2022/01/11 07:11:38;;;;;;;;;1.00;0.00;;;;;9.35;85.52;99592.28;146590;596;46017;-74
2022/01/11 07:14:30;;;;;;;;;1.50;1.00;;;;;9.36;81.49;99616.44;146586;630;46020;-73
2022/01/11 07:17:23;;;;;;;;;0.67;0.00;;;;;9.40;79.65;99623.50;146595;610;47011;-71
2022/01/11 07:20:16;;;;;;;;;0.00;0.00;;;;;9.44;80.13;99646.09;146594;565;46020;-77
2022/01/11 07:23:08;;;;;;;;;2.25;1.75;;;;;9.54;80.82;99658.56;146590;566;46012;-77
2022/01/11 07:26:00;;;;;;;;;0.75;0.75;;;;;9.55;80.29;99660.31;146594;577;47009;-75
2022/01/11 07:28:53;;;;;;;;;1.00;1.00;;;;;9.67;81.00;99662.47;146589;626;47010;-73
2022/01/11 07:31:45;;;;;;;;;0.00;0.00;;;;;9.78;81.85;99657.69;146595;571;46008;-77
2022/01/11 07:34:37;;;;;;;;;4.00;4.00;;;;;9.87;81.97;99664.09;146588;593;46012;-73
2022/01/11 07:37:30;;;;;;;;;2.00;0.25;;;;;9.96;82.04;99663.56;146592;577;46020;-73
2022/01/11 07:40:23;;;;;;;;;2.75;2.00;;;;;10.04;82.26;99667.31;146592;597;46018;-72
2022/01/11 07:43:15;;;;;;;;;2.25;2.25;;;;;10.10;81.99;99680.50;146588;741;46020;-73
2022/01/11 07:46:08;;;;;;;;;7.50;7.50;;;;;10.18;82.38;99694.59;146589;647;47010;-73
2022/01/11 07:49:00;;;;;;;;;4.00;4.00;;;;;10.24;82.85;99693.03;146592;604;46021;-72
2022/01/11 07:51:52;;;;;;;;;12.50;8.25;;;;;10.23;83.10;99694.75;146589;607;47012;-73
2022/01/11 07:54:44;;;;;;;;;12.25;11.25;;;;;10.24;82.96;99695.63;146590;625;46021;-73
2022/01/11 07:57:36;;;;;;;;;15.50;14.00;;;;;10.25;82.73;99694.81;146586;576;46025;-72
2022/01/11 08:00:31;;;;;;;;;21.50;19.75;;;;;10.26;83.18;99700.09;146587;625;46020;-72
2022/01/11 08:03:23;;;;;;;;;19.50;17.50;;;;;10.30;83.18;99695.91;146583;588;47010;-72
2022/01/11 08:06:15;;;;;;;;;33.75;29.25;;;;;10.33;83.57;99693.41;146588;565;46008;-72
2022/01/11 08:09:08;;;;;;;;;22.75;19.25;;;;;10.37;83.50;99687.50;146586;612;46017;-72
2022/01/11 08:12:00;;;;;;;;;36.75;31.25;;;;;10.38;84.23;99668.56;146588;685;46020;-76
2022/01/11 08:14:53;;;;;;;;;30.50;25.50;;;;;10.36;84.03;99673.66;146584;569;47010;-72
2022/01/11 08:17:46;;;;;;;;;31.00;25.50;;;;;10.36;83.62;99659.84;146584;625;47008;-72
2022/01/11 08:20:39;;;;;;;;;23.00;21.00;;;;;10.37;83.34;99671.97;146582;575;46016;-72
2022/01/11 08:23:31;;;;;;;;;33.75;29.75;;;;;10.41;83.41;99702.34;146586;592;46021;-73
2022/01/11 08:26:23;;;;;;;;;49.50;41.25;;;;;10.45;82.82;99700.75;146585;676;47010;-72
2022/01/11 08:29:17;;;;;;;;;57.00;45.25;;;;;10.48;83.33;99700.84;146586;586;46020;-72
2022/01/11 08:32:11;;;;;;;;;34.50;31.00;;;;;10.51;82.22;99717.38;146585;639;46010;-72
2022/01/11 08:35:02;;;;;;;;;14.00;10.50;;;;;10.51;81.53;99706.16;146584;685;46915;-72
2022/01/11 08:37:55;;;;;;;;;13.75;12.00;;;;;10.49;81.40;99731.12;146582;640;46017;-73
2022/01/11 08:40:53;;;;;;;;;17.75;16.25;;;;;10.44;81.68;99756.87;146589;583;45021;-72
2022/01/11 08:43:45;;;;;;;;;40.50;35.00;;;;;10.42;81.33;99744.69;146586;595;46012;-71
2022/01/11 08:46:38;;;;;;;;;45.00;38.50;;;;;10.40;81.28;99742.94;146589;594;45021;-72
2022/01/11 08:49:30;;;;;;;;;20.00;19.00;;;;;10.42;81.77;99726.56;146583;633;47010;-73
2022/01/11 08:52:22;;;;;;;;;71.25;55.25;;;;;10.40;80.96;99732.56;146587;595;46008;-73
2022/01/11 08:55:15;;;;;;;;;73.00;55.25;;;;;10.41;81.41;99730.84;146583;595;47010;-72
2022/01/11 08:58:08;;;;;;;;;38.25;33.50;;;;;10.39;81.41;99754.09;146588;587;46008;-72
2022/01/11 09:01:00;;;;;;;;;33.25;30.75;;;;;10.36;80.96;99748.81;146584;601;46016;-72
2022/01/11 09:03:52;;;;;;;;;18.75;18.00;;;;;10.33;81.04;99724.50;146586;563;47008;-74
2022/01/11 09:06:44;;;;;;;;;22.75;20.25;;;;;10.33;80.77;99722.78;146582;590;48010;-73
2022/01/11 09:09:38;;;;;;;;;43.00;35.75;;;;;10.29;80.80;99722.66;146585;570;47008;-74
2022/01/11 09:12:30;;;;;;;;;24.25;23.50;;;;;10.27;81.20;99742.41;146584;616;46016;-71
2022/01/11 09:15:22;;;;;;;;;25.00;24.75;;;;;10.25;81.87;99734.56;146587;630;46020;-69
2022/01/11 09:18:15;;;;;;;;;56.75;46.00;;;;;10.25;81.85;99737.16;146585;665;46010;-68
2022/01/11 09:21:08;;;;;;;;;37.25;32.00;;;;;10.22;81.46;99730.97;146585;638;47012;-69
2022/01/11 09:24:00;;;;;;;;;22.00;20.00;;;;;10.01;81.40;99720.72;146583;576;46017;-68
2022/01/11 09:26:55;;;;;;;;;24.00;21.00;;;;;9.82;82.04;99761.44;146585;572;46020;-69
2022/01/11 09:29:48;;;;;;;;;12.25;11.00;;;;;9.75;81.90;99754.28;146584;599;46011;-69
2022/01/11 09:32:41;;;;;;;;;2.00;1.75;;;;;9.63;82.57;99757.25;146591;625;46020;-69
2022/01/11 09:35:34;;;;;;;;;0.00;0.00;;;;;9.51;80.27;99761.94;146593;571;46016;-69
2022/01/11 09:38:25;;;;;;;;;2.00;2.00;;;;;9.43;79.86;99774.56;146586;564;46021;-69
2022/01/11 09:41:18;;;;;;;;;0.50;0.50;;;;;9.42;80.49;99782.28;146591;720;46032;-68
2022/01/11 09:44:11;;;;;;;;;53.00;40.50;;;;;9.40;80.77;99770.97;146593;585;46020;-68
2022/01/11 09:47:04;;;;;;;;;7.75;4.75;;;;;9.37;81.29;99789.84;146584;581;47010;-70
2022/01/11 09:49:56;;;;;;;;;1.25;1.25;;;;;9.42;81.47;99775.38;146590;593;47008;-70
2022/01/11 09:52:49;;;;;;;;;11.75;9.00;;;;;9.45;82.58;99792.75;146589;676;46024;-68
2022/01/11 09:55:43;;;;;;;;;2.50;1.50;;;;;9.39;82.78;99797.66;146592;585;46008;-69
2022/01/11 09:58:36;;;;;;;;;1.50;1.00;;;;;9.40;82.79;99799.44;146587;633;47012;-68
2022/01/11 10:01:28;;;;;;;;;2.00;1.00;;;;;9.45;82.17;99792.75;146594;647;46020;-70
2022/01/11 10:04:20;;;;;;;;;2.00;1.00;;;;;9.49;82.34;99789.47;146588;590;47010;-68
2022/01/11 10:07:13;;;;;;;;;9.25;8.00;;;;;9.56;82.66;99806.97;146586;589;46027;-69
2022/01/11 10:10:07;;;;;;;;;1.25;0.50;;;;;9.58;82.34;99838.12;146587;623;46918;-68
2022/01/11 10:13:04;;;;;;;;;1.00;1.00;;;;;9.55;81.46;99819.88;146592;669;46008;-70
2022/01/11 10:15:56;;;;;;;;;3.50;3.00;;;;;9.46;81.47;99828.16;146590;619;46010;-69
2022/01/11 10:18:49;;;;;;;;;1.50;1.50;;;;;9.44;81.35;99812.56;146592;694;46915;-69
2022/01/11 10:21:49;;;;;;;;;3.00;1.50;;;;;9.43;81.12;99804.72;146591;707;46918;-69
2022/01/11 10:24:47;;;;;;;;;4.00;3.00;;;;;9.46;81.64;99822.97;146593;574;46020;-69
2022/01/11 10:27:40;;;;;;;;;6.50;5.00;;;;;9.41;81.68;99803.81;146589;624;46016;-70
2022/01/11 10:30:33;;;;;;;;;1.00;0.00;;;;;9.44;82.63;99776.34;146591;608;46021;-68
2022/01/11 10:33:26;;;;;;;;;8.75;7.50;;;;;9.55;84.60;99750.00;146590;666;46016;-68
2022/01/11 10:36:18;;;;;;;;;14.00;13.00;;;;;9.64;84.21;99771.94;146591;590;46020;-70
2022/01/11 10:39:48;;;;;;;;;9.25;9.25;;;;;8.73;82.96;99606.22;146583;586;47010;-70
2022/01/11 10:42:45;;;;;;;;;3.25;1.75;;;;;9.90;84.06;99780.72;146594;565;46008;-69
2022/01/11 10:45:42;;;;;;;;;0.00;0.00;;;;;10.12;82.72;99781.56;146593;569;46016;-70
2022/01/11 10:48:43;;;;;;;;;1.00;1.00;;;;;10.35;80.86;99747.06;146590;569;47007;-70
2022/01/11 10:51:36;;;;;;;;;8.50;6.00;;;;;10.52;82.68;99755.44;146591;580;46017;-69
2022/01/11 10:54:35;;;;;;;;;29.75;28.00;;;;;10.54;80.88;99746.00;146588;578;47916;-70
2022/01/11 10:57:40;;;;;;;;;5.00;5.00;;;;;10.45;81.54;99758.63;146585;569;47010;-70
2022/01/11 11:00:56;;;;;;;;;17.50;15.00;;;;;9.27;81.76;99554.00;146595;564;46009;-70
2022/01/11 11:03:48;;;;;;;;;20.25;18.00;;;;;10.33;82.19;99764.25;146585;612;46016;-69
2022/01/11 11:06:40;;;;;;;;;20.75;19.75;;;;;10.25;81.13;99764.75;146588;571;46020;-72
2022/01/11 11:09:47;;;;;;;;;36.75;31.00;;;;;10.17;83.33;99778.31;146585;594;47010;-72
2022/01/11 11:12:40;;;;;;;;;13.25;8.25;;;;;10.11;82.78;99749.59;146587;648;46020;-72
2022/01/11 11:15:40;;;;;;;;;3.00;1.00;;;;;10.09;81.78;99750.34;146590;654;46017;-74
2022/01/11 11:18:38;;;;;;;;;3.25;3.25;;;;;10.18;81.89;99754.16;146593;563;46020;-73
2022/01/11 11:21:38;;;;;;;;;8.00;7.75;;;;;10.30;81.59;99734.75;146592;722;45918;-72
2022/01/11 11:24:31;;;;;;;;;13.25;13.00;;;;;10.38;81.13;99705.72;146592;599;46916;-70
2022/01/11 11:27:24;;;;;;;;;7.00;5.00;;;;;10.48;80.29;99696.53;146586;579;46016;-71
2022/01/11 11:30:16;;;;;;;;;6.00;4.75;;;;;10.52;78.89;99729.50;146595;642;46008;-72
2022/01/11 11:33:08;;;;;;;;;10.75;8.50;;;;;10.58;79.68;99759.97;146591;627;47010;-79
2022/01/11 11:36:01;;;;;;;;;4.75;4.75;;;;;10.55;77.76;99739.12;146587;572;46020;-74
2022/01/11 11:39:03;;;;;;;;;5.00;5.00;;;;;10.59;77.62;99760.03;146594;627;46017;-68
2022/01/11 11:41:59;;;;;;;;;0.33;0.33;;;;;10.56;75.01;99726.22;146596;579;46020;-69
2022/01/11 11:44:52;;;;;;;;;4.00;4.00;;;;;10.56;76.21;99752.16;146591;627;46016;-68
2022/01/11 11:47:45;;;;;;;;;3.00;2.00;;;;;10.54;75.89;99724.41;146594;583;46020;-70
2022/01/11 12:03:30;;;;;;;;;5.50;5.25;;;;;10.62;76.49;99699.59;146632;566;46011;-69
2022/01/11 12:06:33;;;;;;;;;0.75;0.75;;;;;10.61;73.05;99724.66;146611;570;47934;-76
2022/01/11 12:09:31;;;;;;;;;0.00;0.00;;;;;10.71;76.00;99745.72;146620;576;46021;-72
2022/01/11 12:12:53;;;;;;;;;2.50;2.00;;;;;10.74;74.71;99748.41;146612;572;46028;-72
2022/01/11 12:15:45;;;;;;;;;1.75;1.00;;;;;10.73;74.54;99741.47;146614;700;47008;-72
2022/01/11 12:18:47;;;;;;;;;0.00;0.00;;;;;10.69;74.21;99740.50;146613;553;46017;-71
2022/01/11 12:22:42;;;;;;;;;0.00;0.00;;;;;10.31;74.31;99711.50;146617;569;47008;-71
2022/01/11 12:25:41;;;;;;;;;0.00;0.00;;;;;10.55;75.07;99750.34;146612;583;46912;-71
2022/01/11 12:28:33;;;;;;;;;0.00;0.00;;;;;10.50;73.98;99717.31;146614;705;47008;-72
2022/01/11 12:31:43;;;;;;;;;0.75;0.75;;;;;10.40;75.06;99729.06;146613;578;46016;-70
2022/01/11 12:35:14;;;;;;;;;0.50;0.00;;;;;10.29;75.80;99735.59;146618;632;45021;-72
2022/01/11 12:38:12;;;;;;;;;1.50;1.00;;;;;10.20;74.26;99730.03;146610;588;46010;-73
2022/01/11 12:41:38;;;;;;;;;0.67;0.67;;;;;10.17;75.30;99749.81;146618;591;46020;-70
2022/01/11 12:45:35;;;;;;;;;0.00;0.00;;;;;10.12;75.26;99729.75;146612;661;46029;-74
2022/01/11 12:47:50;;;;;;;;;0.00;0.00;;;;;10.06;76.21;99713.97;146615;707;47006;-71
2022/01/11 12:51:02;;;;;;;;;2.25;1.00;;;;;9.98;76.18;99672.28;146610;565;46016;-71
2022/01/11 12:54:27;;;;;;;;;1.00;0.25;;;;;9.94;77.28;99676.47;146615;576;47013;-69
2022/01/11 12:57:26;;;;;;;;;0.50;0.50;;;;;9.88;76.65;99717.66;146610;563;46016;-69
2022/01/11 13:00:20;;;;;;;;;0.00;0.00;;;;;9.80;77.31;99698.34;146614;590;46020;-69
2022/01/11 13:03:13;;;;;;;;;23.50;22.00;;;;;9.82;77.65;99673.41;146610;601;46011;-71
2022/01/11 13:06:04;;;;;;;;;4.25;3.75;;;;;9.81;78.85;99691.47;146610;602;46020;-70
2022/01/11 13:09:07;;;;;;;;;1.00;0.50;;;;;9.77;78.36;99706.00;146611;662;46016;-70
2022/01/11 13:11:59;;;;;;;;;0.00;0.00;;;;;9.74;78.98;99712.78;146615;579;46021;-70
2022/01/11 13:15:10;;;;;;;;;1.00;0.00;;;;;9.68;77.17;99703.94;146609;573;47010;-70
2022/01/11 13:18:18;;;;;;;;;0.00;0.00;;;;;9.62;77.63;99727.00;146613;611;47008;-72
2022/01/11 13:21:12;;;;;;;;;0.00;0.00;;;;;9.54;78.73;99743.94;146612;643;46029;-72
2022/01/11 13:24:24;;;;;;;;;1.00;1.00;;;;;9.51;79.07;99717.94;146615;643;46020;-71
2022/01/11 13:27:16;;;;;;;;;3.50;3.50;;;;;9.48;77.94;99738.53;146612;569;46010;-70
2022/01/11 13:30:09;;;;;;;;;2.00;1.00;;;;;9.51;78.22;99763.66;146620;580;45020;-70
2022/01/11 13:33:01;;;;;;;;;1.00;1.00;;;;;9.56;78.55;99744.88;146611;646;46911;-69
2022/01/11 13:35:53;;;;;;;;;0.75;0.00;;;;;9.61;76.19;99743.38;146615;647;46020;-70
2022/01/11 13:38:57;;;;;;;;;4.50;2.00;;;;;9.68;77.01;99718.59;146613;661;46012;-69
2022/01/11 13:41:52;;;;;;;;;2.25;2.25;;;;;8.81;76.62;99558.28;146615;603;47008;-70
2022/01/11 13:44:49;;;;;;;;;1.50;0.50;;;;;9.73;75.95;99708.44;146614;621;46010;-72
2022/01/11 13:47:41;;;;;;;;;1.00;1.00;;;;;9.75;75.15;99699.00;146614;668;47008;-70
2022/01/11 13:50:33;;;;;;;;;0.50;0.50;;;;;9.75;74.37;99699.00;146610;581;46027;-71
2022/01/11 13:53:34;;;;;;;;;0.00;0.00;;;;;9.76;75.28;99703.37;146616;576;46021;-70
2022/01/11 13:56:27;;;;;;;;;0.00;0.00;;;;;9.76;74.60;99726.66;146607;563;46016;-71
2022/01/11 13:59:29;;;;;;;;;3.25;2.00;;;;;9.82;74.27;99753.69;146616;618;46008;-69
2022/01/11 14:02:23;;;;;;;;;0.00;0.00;;;;;9.80;73.83;99728.53;146612;655;46016;-70
2022/01/11 14:05:18;;;;;;;;;1.00;1.00;;;;;9.79;75.76;99755.28;146614;580;47008;-72
2022/01/11 14:08:11;;;;;;;;;11.00;10.50;;;;;8.76;76.12;99604.63;146608;582;46016;-71
2022/01/11 14:11:08;;;;;;;;;14.50;10.50;;;;;9.81;76.45;99774.31;146606;646;47008;-70
2022/01/11 14:14:08;;;;;;;;;59.00;44.25;;;;;9.86;75.01;99809.03;146605;591;46016;-70
2022/01/11 14:17:00;;;;;;;;;3.75;3.50;;;;;9.86;74.75;99819.41;146606;566;46020;-72
2022/01/11 14:20:05;;;;;;;;;1.00;0.00;;;;;9.89;73.67;99829.88;146610;582;46016;-70
2022/01/11 14:23:04;;;;;;;;;3.00;3.00;;;;;9.88;72.94;99878.19;146616;602;46020;-71
2022/01/11 14:25:57;;;;;;;;;3.75;3.00;;;;;8.98;73.64;99714.97;146611;570;46016;-70
2022/01/11 14:28:54;;;;;;;;;2.00;0.00;;;;;9.99;71.55;99909.69;146616;693;46008;-71
2022/01/11 14:31:47;;;;;;;;;12.75;9.25;;;;;10.04;74.74;99967.75;146611;584;46911;-71